createdAt,value
2022-12-26T00:00:14.587Z,100827.28
2022-12-26T00:00:46.225Z,100826.28
2022-12-26T00:01:21.223Z,100827.91
2022-12-26T00:01:53.946Z,100831.56
2022-12-26T00:02:25.465Z,100838.91
2022-12-26T00:02:57.129Z,100842.38
2022-12-26T00:03:30.559Z,100855.44
2022-12-26T00:04:02.678Z,100854.84
2022-12-26T00:04:48.971Z,100862.34
2022-12-26T00:05:24.255Z,100860.94
2022-12-26T00:05:59.301Z,100854.84
2022-12-26T00:06:31.909Z,100854.84
2022-12-26T00:07:03.581Z,100858.31
2022-12-26T00:07:35.093Z,100849.53
2022-12-26T00:08:08.075Z,100852.78
2022-12-26T00:08:39.614Z,100849.13
2022-12-26T00:09:11.857Z,100851.16
2022-12-26T00:09:43.931Z,100848.72
2022-12-26T00:10:15.649Z,100847.69
2022-12-26T00:10:47.256Z,100853.19
2022-12-26T00:11:20.082Z,100861.78
2022-12-26T00:11:51.628Z,100858.53
2022-12-26T00:12:23.273Z,100850.75
2022-12-26T00:12:56.448Z,100850.34
2022-12-26T00:13:54.075Z,100843.84
2022-12-26T00:14:25.646Z,100846.06
2022-12-26T00:14:57.174Z,100852.19
2022-12-26T00:15:28.701Z,100843.63
2022-12-26T00:16:00.279Z,100847.09
2022-12-26T00:16:32.229Z,100859.75
2022-12-26T00:17:03.805Z,100856.47
2022-12-26T00:17:35.330Z,100859.75
2022-12-26T00:18:07.072Z,100858.09
2022-12-26T00:18:39.216Z,100860.13
2022-12-26T00:19:10.811Z,100854.84
2022-12-26T00:19:43.404Z,100856.00
2022-12-26T00:20:15.802Z,100847.50
2022-12-26T00:20:47.363Z,100856.47
2022-12-26T00:21:19.795Z,100863.81
2022-12-26T00:21:52.632Z,100860.34
2022-12-26T00:22:25.180Z,100861.78
2022-12-26T00:22:56.772Z,100864.63
2022-12-26T00:23:28.606Z,100853.63
2022-12-26T00:24:01.259Z,100865.44
2022-12-26T00:24:33.946Z,100861.56
2022-12-26T00:25:06.482Z,100862.38
2022-12-26T00:25:38.070Z,100866.69
2022-12-26T00:26:15.222Z,100861.78
2022-12-26T00:26:47.721Z,100859.50
2022-12-26T00:27:19.269Z,100860.94
2022-12-26T00:27:51.203Z,100865.25
2022-12-26T00:28:22.744Z,100860.56
2022-12-26T00:28:55.400Z,100869.13
2022-12-26T00:29:26.966Z,100859.31
2022-12-26T00:29:58.744Z,100856.47
2022-12-26T00:30:30.296Z,100849.13
2022-12-26T00:31:18.750Z,100857.69
2022-12-26T00:31:52.521Z,100865.44
2022-12-26T00:32:24.067Z,100863.59
2022-12-26T00:32:55.851Z,100858.50
2022-12-26T00:33:27.409Z,100862.78
2022-12-26T00:33:59.812Z,100863.41
2022-12-26T00:34:31.615Z,100865.03
2022-12-26T00:35:03.382Z,100859.75
2022-12-26T00:35:34.992Z,100861.38
2022-12-26T00:36:09.720Z,100861.16
2022-12-26T00:36:41.557Z,100860.34
2022-12-26T00:37:13.299Z,100865.66
2022-12-26T00:37:44.842Z,100869.31
2022-12-26T00:38:16.542Z,100866.69
2022-12-26T00:38:48.834Z,100859.34
2022-12-26T00:39:20.347Z,100862.00
2022-12-26T00:39:51.876Z,100864.84
2022-12-26T00:40:23.466Z,100864.44
2022-12-26T00:40:54.993Z,100866.69
2022-12-26T00:41:27.050Z,100865.84
2022-12-26T00:42:06.162Z,100871.59
2022-12-26T00:42:37.794Z,100868.31
2022-12-26T00:43:09.867Z,100873.22
2022-12-26T00:43:41.439Z,100874.44
2022-12-26T00:44:13.129Z,100867.28
2022-12-26T00:44:44.637Z,100874.84
2022-12-26T00:45:16.195Z,100876.25
2022-12-26T00:45:48.274Z,100877.28
2022-12-26T00:46:20.264Z,100873.63
2022-12-26T00:46:51.953Z,100867.50
2022-12-26T00:47:23.596Z,100875.25
2022-12-26T00:47:55.087Z,100868.94
2022-12-26T00:48:27.173Z,100874.22
2022-12-26T00:48:58.827Z,100867.50
2022-12-26T00:49:30.349Z,100874.84
2022-12-26T00:50:21.742Z,100872.59
2022-12-26T00:50:53.547Z,100883.00
2022-12-26T00:51:25.085Z,100876.25
2022-12-26T00:51:56.765Z,100888.31
2022-12-26T00:52:28.424Z,100892.19
2022-12-26T00:53:00.015Z,100891.16
2022-12-26T00:53:32.219Z,100887.09
2022-12-26T00:54:03.839Z,100891.19
2022-12-26T00:54:35.805Z,100894.88
2022-12-26T00:55:07.720Z,100889.97
2022-12-26T00:55:41.419Z,100886.28
2022-12-26T00:56:13.245Z,100883.03
2022-12-26T00:56:44.794Z,100888.75
2022-12-26T00:57:16.393Z,100881.38
2022-12-26T00:57:48.141Z,100891.19
2022-12-26T00:58:20.423Z,100889.16
2022-12-26T00:58:52.631Z,100880.78
2022-12-26T00:59:24.201Z,100879.75
2022-12-26T00:59:55.739Z,100879.34
2022-12-26T01:00:27.250Z,100884.25
2022-12-26T01:01:10.035Z,100879.75
2022-12-26T01:01:41.870Z,100882.59
2022-12-26T01:02:32.488Z,100872.81
2022-12-26T01:03:07.809Z,100879.75
2022-12-26T01:03:39.943Z,100876.47
2022-12-26T01:04:11.554Z,100873.44
2022-12-26T01:04:43.283Z,100874.06
2022-12-26T01:05:15.689Z,100880.16
2022-12-26T01:05:51.488Z,100881.38
2022-12-26T01:06:23.987Z,100873.44
2022-12-26T01:06:58.544Z,100879.75
2022-12-26T01:08:19.582Z,100875.88
2022-12-26T01:08:34.410Z,100888.31
2022-12-26T01:09:06.017Z,100883.81
2022-12-26T01:09:38.555Z,100877.09
2022-12-26T01:10:12.842Z,100884.22
2022-12-26T01:10:53.749Z,100885.25
2022-12-26T01:11:40.654Z,100880.16
2022-12-26T01:12:12.520Z,100885.25
2022-12-26T01:12:44.492Z,100878.53
2022-12-26T01:13:16.062Z,100880.78
2022-12-26T01:13:47.751Z,100877.09
2022-12-26T01:14:19.534Z,100886.28
2022-12-26T01:14:51.087Z,100886.91
2022-12-26T01:15:22.732Z,100888.34
2022-12-26T01:15:54.565Z,100883.66
2022-12-26T01:16:26.194Z,100885.06
2022-12-26T01:16:57.818Z,100887.09
2022-12-26T01:17:29.647Z,100888.34
2022-12-26T01:18:03.076Z,100889.16
2022-12-26T01:18:37.289Z,100893.03
2022-12-26T01:19:10.145Z,100892.19
2022-12-26T01:19:41.681Z,100890.38
2022-12-26T01:20:14.749Z,100903.84
2022-12-26T01:20:46.284Z,100902.63
2022-12-26T01:21:17.845Z,100895.28
2022-12-26T01:21:49.361Z,100897.31
2022-12-26T01:22:21.804Z,100895.66
2022-12-26T01:22:55.235Z,100892.41
2022-12-26T01:23:26.948Z,100893.84
2022-12-26T01:23:58.553Z,100887.72
2022-12-26T01:24:30.295Z,100882.59
2022-12-26T01:25:02.144Z,100894.88
2022-12-26T01:25:33.774Z,100893.22
2022-12-26T01:26:16.940Z,100897.31
2022-12-26T01:26:51.840Z,100895.66
2022-12-26T01:27:24.347Z,100895.66
2022-12-26T01:27:57.181Z,100897.31
2022-12-26T01:28:28.822Z,100903.84
2022-12-26T01:29:02.416Z,100898.75
2022-12-26T01:29:33.938Z,100895.53
2022-12-26T01:30:06.197Z,100905.47
2022-12-26T01:30:37.818Z,100898.53
2022-12-26T01:31:09.400Z,100907.53
2022-12-26T01:31:41.056Z,100908.94
2022-12-26T01:32:12.837Z,100909.56
2022-12-26T01:32:44.369Z,100909.56
2022-12-26T01:33:16.255Z,100899.34
2022-12-26T01:33:49.119Z,100912.00
2022-12-26T01:34:21.596Z,100906.28
2022-12-26T01:34:55.541Z,100909.13
2022-12-26T01:35:28.283Z,100915.25
2022-12-26T01:36:00.204Z,100906.91
2022-12-26T01:36:34.626Z,100921.59
2022-12-26T01:37:06.116Z,100916.28
2022-12-26T01:37:37.706Z,100918.13
2022-12-26T01:38:09.289Z,100921.81
2022-12-26T01:38:40.810Z,100917.72
2022-12-26T01:39:12.686Z,100916.91
2022-12-26T01:39:44.308Z,100914.66
2022-12-26T01:40:15.855Z,100922.63
2022-12-26T01:40:48.705Z,100922.19
2022-12-26T01:41:20.887Z,100918.13
2022-12-26T01:41:55.841Z,100921.81
2022-12-26T01:42:36.996Z,100916.50
2022-12-26T01:43:12.160Z,100913.03
2022-12-26T01:43:57.531Z,100919.75
2022-12-26T01:45:06.174Z,100916.75
2022-12-26T01:45:37.743Z,100917.34
2022-12-26T01:46:09.350Z,100915.94
2022-12-26T01:46:44.648Z,100915.28
2022-12-26T01:47:17.054Z,100913.28
2022-12-26T01:48:15.011Z,100914.94
2022-12-26T01:48:46.911Z,100910.00
2022-12-26T01:49:23.479Z,100904.06
2022-12-26T01:49:55.699Z,100903.88
2022-12-26T01:50:59.204Z,100906.09
2022-12-26T01:51:34.194Z,100903.88
2022-12-26T01:52:10.051Z,100898.75
2022-12-26T01:52:45.046Z,100907.13
2022-12-26T01:53:18.328Z,100912.44
2022-12-26T01:53:52.594Z,100907.13
2022-12-26T01:54:39.092Z,100909.56
2022-12-26T01:55:16.360Z,100912.84
2022-12-26T01:55:51.764Z,100903.44
2022-12-26T01:56:30.475Z,100909.16
2022-12-26T01:57:05.356Z,100908.94
2022-12-26T01:57:41.691Z,100917.34
2022-12-26T01:58:17.421Z,100902.44
2022-12-26T01:59:02.556Z,100910.38
2022-12-26T01:59:36.370Z,100893.22
2022-12-26T02:00:08.884Z,100904.31
2022-12-26T02:00:46.166Z,100891.63
2022-12-26T02:01:19.056Z,100895.50
2022-12-26T02:01:52.565Z,100896.56
2022-12-26T02:02:28.732Z,100897.13
2022-12-26T02:03:19.084Z,100905.47
2022-12-26T02:04:09.518Z,100899.97
2022-12-26T02:05:03.044Z,100896.94
2022-12-26T02:05:37.070Z,100902.63
2022-12-26T02:06:09.443Z,100905.91
2022-12-26T02:06:41.470Z,100901.41
2022-12-26T02:07:13.235Z,100905.91
2022-12-26T02:07:45.890Z,100900.59
2022-12-26T02:08:22.682Z,100898.53
2022-12-26T02:08:54.446Z,100903.84
2022-12-26T02:09:26.237Z,100902.00
2022-12-26T02:09:57.850Z,100896.50
2022-12-26T02:10:33.097Z,100902.22
2022-12-26T02:11:12.862Z,100906.53
2022-12-26T02:12:34.041Z,100894.47
2022-12-26T02:12:43.074Z,100902.63
2022-12-26T02:13:15.443Z,100898.56
2022-12-26T02:13:47.219Z,100902.03
2022-12-26T02:14:18.798Z,100897.94
2022-12-26T02:14:50.594Z,100896.50
2022-12-26T02:15:22.202Z,100904.66
2022-12-26T02:15:53.712Z,100899.16
2022-12-26T02:16:26.065Z,100901.81
2022-12-26T02:16:57.685Z,100900.19
2022-12-26T02:17:29.285Z,100898.53
2022-12-26T02:18:00.847Z,100901.81
2022-12-26T02:18:32.610Z,100900.56
2022-12-26T02:19:08.187Z,100901.81
2022-12-26T02:20:02.035Z,100908.13
2022-12-26T02:20:57.851Z,100907.94
2022-12-26T02:21:32.104Z,100900.41
2022-12-26T02:22:37.329Z,100901.88
2022-12-26T02:23:44.130Z,100908.34
2022-12-26T02:24:24.130Z,100903.44
2022-12-26T02:24:58.555Z,100900.78
2022-12-26T02:26:04.788Z,100899.97
2022-12-26T02:27:00.963Z,100901.00
2022-12-26T02:27:42.084Z,100893.66
2022-12-26T02:29:01.449Z,100903.44
2022-12-26T02:29:45.061Z,100902.84
2022-12-26T02:30:33.085Z,100901.81
2022-12-26T02:31:16.477Z,100901.41
2022-12-26T02:32:14.799Z,100909.16
2022-12-26T02:33:33.961Z,100902.44
2022-12-26T02:34:47.638Z,100903.44
2022-12-26T02:35:51.268Z,100909.38
2022-12-26T02:36:37.695Z,100911.00
2022-12-26T02:37:15.277Z,100903.44
2022-12-26T02:38:30.062Z,100915.50
2022-12-26T02:39:45.387Z,100906.31
2022-12-26T02:40:11.151Z,100908.75
2022-12-26T02:40:42.854Z,100911.41
2022-12-26T02:41:35.229Z,100914.06
2022-12-26T02:42:11.446Z,100914.69
2022-12-26T02:42:51.565Z,100915.06
2022-12-26T02:43:45.417Z,100911.22
2022-12-26T02:44:46.441Z,100910.38
2022-12-26T02:45:53.430Z,100911.59
2022-12-26T02:46:51.635Z,100910.38
2022-12-26T02:47:55.317Z,100917.34
2022-12-26T02:48:44.771Z,100903.22
2022-12-26T02:50:03.373Z,100909.97
2022-12-26T02:51:24.116Z,100901.81
2022-12-26T02:52:20.403Z,100901.00
2022-12-26T02:53:31.287Z,100905.09
2022-12-26T02:54:53.378Z,100896.91
2022-12-26T02:55:45.563Z,100901.81
2022-12-26T02:56:43.211Z,100893.03
2022-12-26T02:57:57.848Z,100892.78
2022-12-26T02:59:11.440Z,100902.22
2022-12-26T03:00:04.316Z,100901.38
2022-12-26T03:00:56.157Z,100903.84
2022-12-26T03:01:54.342Z,100910.78
2022-12-26T03:02:50.182Z,100907.91
2022-12-26T03:03:45.082Z,100909.94
2022-12-26T03:04:37.613Z,100911.19
2022-12-26T03:05:35.193Z,100915.25
2022-12-26T03:06:30.301Z,100911.59
2022-12-26T03:07:22.817Z,100913.63
2022-12-26T03:08:12.965Z,100900.56
2022-12-26T03:09:22.724Z,100912.81
2022-12-26T03:10:14.569Z,100914.66
2022-12-26T03:11:04.740Z,100916.06
2022-12-26T03:11:59.767Z,100904.66
2022-12-26T03:13:03.687Z,100911.59
2022-12-26T03:13:36.990Z,100899.97
2022-12-26T03:14:18.596Z,100903.22
2022-12-26T03:14:59.731Z,100906.28
2022-12-26T03:15:52.435Z,100897.72
2022-12-26T03:16:44.088Z,100900.16
2022-12-26T03:17:26.922Z,100901.78
2022-12-26T03:18:04.204Z,100902.81
2022-12-26T03:18:59.526Z,100896.69
2022-12-26T03:19:31.714Z,100907.31
2022-12-26T03:20:14.295Z,100907.09
2022-12-26T03:20:46.578Z,100903.00
2022-12-26T03:21:21.703Z,100899.75
2022-12-26T03:21:53.270Z,100896.69
2022-12-26T03:22:48.916Z,100904.25
2022-12-26T03:23:21.441Z,100898.94
2022-12-26T03:23:54.550Z,100895.28
2022-12-26T03:24:46.649Z,100891.38
2022-12-26T03:25:51.337Z,100893.03
2022-12-26T03:26:41.395Z,100894.03
2022-12-26T03:27:12.942Z,100894.03
2022-12-26T03:27:44.800Z,100894.03
2022-12-26T03:28:16.841Z,100890.16
2022-12-26T03:28:48.529Z,100893.22
2022-12-26T03:29:41.596Z,100893.22
2022-12-26T03:30:31.620Z,100898.72
2022-12-26T03:31:07.520Z,100895.28
2022-12-26T03:31:39.211Z,100905.25
2022-12-26T03:32:12.698Z,100898.94
2022-12-26T03:32:44.656Z,100900.56
2022-12-26T03:33:47.973Z,100906.91
2022-12-26T03:34:21.459Z,100909.53
2022-12-26T03:34:53.043Z,100900.16
2022-12-26T03:35:26.415Z,100903.00
2022-12-26T03:35:58.467Z,100901.38
2022-12-26T03:37:08.171Z,100894.44
2022-12-26T03:38:10.170Z,100888.34
2022-12-26T03:38:56.103Z,100892.81
2022-12-26T03:40:04.707Z,100893.63
2022-12-26T03:40:57.802Z,100897.88
2022-12-26T03:42:04.411Z,100886.00
2022-12-26T03:42:54.332Z,100896.44
2022-12-26T03:43:55.956Z,100901.31
2022-12-26T03:45:05.277Z,100896.41
2022-12-26T03:46:04.975Z,100892.50
2022-12-26T03:47:04.679Z,100899.25
2022-12-26T03:48:12.471Z,100902.28
2022-12-26T03:49:15.168Z,100893.06
2022-12-26T03:50:12.470Z,100895.53
2022-12-26T03:51:05.393Z,100892.06
2022-12-26T03:52:07.567Z,100897.56
2022-12-26T03:53:16.509Z,100886.13
2022-12-26T03:54:14.775Z,100897.16
2022-12-26T03:55:32.448Z,100901.66
2022-12-26T03:56:32.853Z,100895.56
2022-12-26T03:57:25.468Z,100890.66
2022-12-26T03:58:27.574Z,100897.19
2022-12-26T03:59:30.126Z,100885.56
2022-12-26T04:00:30.806Z,100878.44
2022-12-26T04:01:25.876Z,100881.69
2022-12-26T04:02:20.316Z,100880.25
2022-12-26T04:03:13.022Z,100880.66
2022-12-26T04:04:04.229Z,100889.00
2022-12-26T04:04:56.353Z,100893.69
2022-12-26T04:05:46.667Z,100895.94
2022-12-26T04:06:39.846Z,100904.47
2022-12-26T04:07:35.267Z,100898.72
2022-12-26T04:08:33.753Z,100900.75
2022-12-26T04:09:34.944Z,100905.22
2022-12-26T04:10:28.176Z,100901.34
2022-12-26T04:11:23.590Z,100900.31
2022-12-26T04:12:15.678Z,100904.59
2022-12-26T04:13:06.838Z,100897.88
2022-12-26T04:14:24.999Z,100909.69
2022-12-26T04:15:29.829Z,100904.38
2022-12-26T04:16:29.116Z,100905.63
2022-12-26T04:17:49.237Z,100911.31
2022-12-26T04:18:45.957Z,100912.75
2022-12-26T04:19:51.007Z,100917.44
2022-12-26T04:20:43.805Z,100920.09
2022-12-26T04:21:55.186Z,100921.91
2022-12-26T04:23:08.876Z,100920.09
2022-12-26T04:24:05.683Z,100922.31
2022-12-26T04:25:02.311Z,100929.44
2022-12-26T04:26:16.283Z,100929.03
2022-12-26T04:27:12.366Z,100933.75
2022-12-26T04:28:02.417Z,100930.09
2022-12-26T04:28:55.059Z,100928.06
2022-12-26T04:29:45.172Z,100935.00
2022-12-26T04:30:35.714Z,100933.78
2022-12-26T04:31:29.770Z,100938.19
2022-12-26T04:32:29.184Z,100929.81
2022-12-26T04:33:43.143Z,100926.94
2022-12-26T04:34:40.609Z,100930.41
2022-12-26T04:35:44.583Z,100939.16
2022-12-26T04:36:44.123Z,100940.38
2022-12-26T04:37:39.922Z,100946.91
2022-12-26T04:38:33.478Z,100946.28
2022-12-26T04:39:25.126Z,100948.13
2022-12-26T04:40:16.632Z,100946.50
2022-12-26T04:41:11.287Z,100950.59
2022-12-26T04:42:01.867Z,100947.31
2022-12-26T04:42:52.838Z,100946.28
2022-12-26T04:43:49.562Z,100948.38
2022-12-26T04:44:24.435Z,100948.19
2022-12-26T04:44:56.370Z,100949.00
2022-12-26T04:45:28.408Z,100946.94
2022-12-26T04:46:00.812Z,100949.59
2022-12-26T04:46:34.606Z,100945.94
2022-12-26T04:47:12.334Z,100948.59
2022-12-26T04:48:04.926Z,100947.38
2022-12-26T04:49:06.742Z,100953.91
2022-12-26T04:50:04.312Z,100942.09
2022-12-26T04:50:36.787Z,100949.03
2022-12-26T04:51:10.909Z,100949.44
2022-12-26T04:51:42.451Z,100944.34
2022-12-26T04:52:14.819Z,100942.09
2022-12-26T04:52:59.080Z,100950.25
2022-12-26T04:53:31.196Z,100944.56
2022-12-26T04:54:03.678Z,100940.47
2022-12-26T04:54:35.646Z,100946.97
2022-12-26T04:55:09.771Z,100940.47
2022-12-26T04:55:41.264Z,100940.47
2022-12-26T04:56:14.030Z,100932.28
2022-12-26T04:56:45.937Z,100934.16
2022-12-26T04:57:17.802Z,100934.16
2022-12-26T04:57:49.336Z,100929.47
2022-12-26T04:58:24.225Z,100935.16
2022-12-26T04:58:55.793Z,100928.22
2022-12-26T04:59:27.517Z,100936.38
2022-12-26T04:59:59.049Z,100943.31
2022-12-26T05:00:30.581Z,100938.00
2022-12-26T05:01:21.079Z,100938.44
2022-12-26T05:02:12.438Z,100938.63
2022-12-26T05:03:02.439Z,100934.75
2022-12-26T05:03:52.651Z,100943.38
2022-12-26T05:04:42.918Z,100940.53
2022-12-26T05:05:32.984Z,100935.41
2022-12-26T05:06:23.251Z,100931.34
2022-12-26T05:07:13.874Z,100932.75
2022-12-26T05:08:04.005Z,100927.91
2022-12-26T05:08:57.394Z,100929.09
2022-12-26T05:09:34.881Z,100918.31
2022-12-26T05:10:08.687Z,100917.47
2022-12-26T05:10:40.320Z,100912.78
2022-12-26T05:11:11.854Z,100914.81
2022-12-26T05:11:49.668Z,100914.75
2022-12-26T05:12:21.443Z,100917.84
2022-12-26T05:12:53.664Z,100908.63
2022-12-26T05:13:25.274Z,100918.00
2022-12-26T05:13:58.384Z,100915.56
2022-12-26T05:14:34.088Z,100914.13
2022-12-26T05:15:06.004Z,100914.94
2022-12-26T05:15:57.666Z,100920.44
2022-12-26T05:16:47.871Z,100921.44
2022-12-26T05:17:38.580Z,100918.44
2022-12-26T05:18:28.678Z,100911.47
2022-12-26T05:19:19.355Z,100922.09
2022-12-26T05:20:09.801Z,100920.03
2022-12-26T05:20:47.170Z,100915.75
2022-12-26T05:21:37.964Z,100917.34
2022-12-26T05:22:28.961Z,100917.56
2022-12-26T05:23:20.462Z,100917.97
2022-12-26T05:24:10.454Z,100915.53
2022-12-26T05:25:01.230Z,100909.38
2022-12-26T05:25:54.355Z,100911.41
2022-12-26T05:26:45.006Z,100924.00
2022-12-26T05:27:43.146Z,100918.97
2022-12-26T05:28:34.631Z,100918.38
2022-12-26T05:29:06.256Z,100920.59
2022-12-26T05:29:37.800Z,100906.72
2022-12-26T05:30:10.066Z,100911.44
2022-12-26T05:30:41.565Z,100909.19
2022-12-26T05:31:16.261Z,100914.88
2022-12-26T05:31:47.856Z,100905.72
2022-12-26T05:32:38.095Z,100906.47
2022-12-26T05:33:28.141Z,100902.81
2022-12-26T05:34:05.597Z,100894.28
2022-12-26T05:34:37.136Z,100899.41
2022-12-26T05:35:09.098Z,100897.34
2022-12-26T05:35:41.010Z,100897.13
2022-12-26T05:36:13.368Z,100906.91
2022-12-26T05:36:49.097Z,100909.13
2022-12-26T05:37:20.738Z,100914.41
2022-12-26T05:37:52.237Z,100908.50
2022-12-26T05:38:23.759Z,100910.94
2022-12-26T05:38:56.240Z,100912.59
2022-12-26T05:39:27.792Z,100912.59
2022-12-26T05:39:59.325Z,100906.03
2022-12-26T05:40:30.909Z,100916.44
2022-12-26T05:41:03.203Z,100915.50
2022-12-26T05:41:35.471Z,100916.31
2022-12-26T05:42:06.989Z,100910.81
2022-12-26T05:42:38.643Z,100909.38
2022-12-26T05:43:10.302Z,100915.50
2022-12-26T05:43:41.897Z,100906.94
2022-12-26T05:44:13.440Z,100912.66
2022-12-26T05:44:44.936Z,100917.34
2022-12-26T05:45:16.610Z,100922.38
2022-12-26T05:45:51.542Z,100920.38
2022-12-26T05:46:23.145Z,100921.13
2022-12-26T05:46:54.826Z,100919.50
2022-12-26T05:47:29.126Z,100923.59
2022-12-26T05:48:01.826Z,100918.09
2022-12-26T05:48:36.177Z,100919.50
2022-12-26T05:49:07.855Z,100921.94
2022-12-26T05:49:45.394Z,100921.56
2022-12-26T05:50:16.959Z,100922.38
2022-12-26T05:50:48.493Z,100916.66
2022-12-26T05:51:20.064Z,100915.00
2022-12-26T05:51:51.732Z,100914.16
2022-12-26T05:52:23.636Z,100917.03
2022-12-26T05:52:59.207Z,100918.88
2022-12-26T05:53:31.205Z,100919.50
2022-12-26T05:54:02.870Z,100914.59
2022-12-26T05:54:34.401Z,100915.81
2022-12-26T05:55:06.455Z,100909.91
2022-12-26T05:55:37.948Z,100920.31
2022-12-26T05:56:14.280Z,100917.47
2022-12-26T05:56:49.263Z,100915.81
2022-12-26T05:57:21.131Z,100915.81
2022-12-26T05:57:52.733Z,100910.53
2022-12-26T05:58:24.240Z,100911.78
2022-12-26T05:58:57.900Z,100909.31
2022-12-26T05:59:30.113Z,100913.81
2022-12-26T06:00:02.384Z,100916.66
2022-12-26T06:00:36.053Z,100913.38
2022-12-26T06:01:10.826Z,100909.28
2022-12-26T06:01:42.488Z,100915.81
2022-12-26T06:02:14.208Z,100906.88
2022-12-26T06:02:47.900Z,100911.78
2022-12-26T06:03:19.691Z,100899.53
2022-12-26T06:03:56.538Z,100906.88
2022-12-26T06:04:30.335Z,100912.94
2022-12-26T06:05:01.864Z,100907.66
2022-12-26T06:05:33.421Z,100905.63
2022-12-26T06:06:06.243Z,100907.66
2022-12-26T06:06:37.773Z,100911.28
2022-12-26T06:07:09.286Z,100917.00
2022-12-26T06:07:40.872Z,100909.06
2022-12-26T06:08:12.386Z,100908.25
2022-12-26T06:08:44.364Z,100906.78
2022-12-26T06:09:17.924Z,100908.25
2022-12-26T06:09:49.419Z,100912.50
2022-12-26T06:10:21.139Z,100902.28
2022-12-26T06:10:52.813Z,100902.72
2022-12-26T06:11:26.385Z,100905.97
2022-12-26T06:11:58.015Z,100900.06
2022-12-26T06:12:29.608Z,100896.81
2022-12-26T06:13:01.648Z,100901.91
2022-12-26T06:13:34.238Z,100902.13
2022-12-26T06:14:05.791Z,100897.22
2022-12-26T06:14:37.376Z,100903.13
2022-12-26T06:15:09.529Z,100900.88
2022-12-26T06:15:41.136Z,100894.56
2022-12-26T06:16:15.008Z,100897.44
2022-12-26T06:16:46.587Z,100890.06
2022-12-26T06:17:18.270Z,100893.53
2022-12-26T06:17:49.781Z,100894.38
2022-12-26T06:18:23.055Z,100889.66
2022-12-26T06:18:55.065Z,100890.28
2022-12-26T06:19:26.664Z,100890.84
2022-12-26T06:19:58.511Z,100889.66
2022-12-26T06:20:30.071Z,100890.84
2022-12-26T06:21:12.863Z,100886.78
2022-12-26T06:21:44.437Z,100889.59
2022-12-26T06:22:15.931Z,100885.88
2022-12-26T06:22:47.465Z,100893.50
2022-12-26T06:23:19.982Z,100890.03
2022-12-26T06:23:51.719Z,100893.72
2022-12-26T06:24:23.234Z,100890.84
2022-12-26T06:24:54.782Z,100889.66
2022-12-26T06:25:26.331Z,100889.66
2022-12-26T06:25:58.119Z,100889.25
2022-12-26T06:26:29.658Z,100886.38
2022-12-26T06:27:01.184Z,100890.84
2022-12-26T06:27:32.951Z,100890.47
2022-12-26T06:28:04.615Z,100879.09
2022-12-26T06:28:38.326Z,100885.16
2022-12-26T06:29:10.216Z,100887.41
2022-12-26T06:29:41.972Z,100887.19
2022-12-26T06:30:13.631Z,100883.47
2022-12-26T06:30:45.154Z,100884.13
2022-12-26T06:31:20.851Z,100887.13
2022-12-26T06:31:52.862Z,100888.41
2022-12-26T06:32:24.461Z,100884.75
2022-12-26T06:32:55.972Z,100887.44
2022-12-26T06:33:27.494Z,100883.56
2022-12-26T06:34:02.216Z,100885.19
2022-12-26T06:34:33.788Z,100888.25
2022-12-26T06:35:05.793Z,100893.31
2022-12-26T06:35:37.352Z,100891.69
2022-12-26T06:36:11.977Z,100882.97
2022-12-26T06:36:43.558Z,100881.06
2022-12-26T06:37:15.306Z,100883.91
2022-12-26T06:37:46.813Z,100878.16
2022-12-26T06:38:18.344Z,100882.44
2022-12-26T06:38:50.533Z,100881.06
2022-12-26T06:39:22.916Z,100876.19
2022-12-26T06:39:54.502Z,100880.25
2022-12-26T06:40:34.740Z,100879.88
2022-12-26T06:41:08.045Z,100887.00
2022-12-26T06:41:39.538Z,100892.50
2022-12-26T06:42:11.062Z,100885.56
2022-12-26T06:42:42.917Z,100887.59
2022-12-26T06:43:16.578Z,100887.13
2022-12-26T06:43:48.874Z,100881.53
2022-12-26T06:44:20.435Z,100887.63
2022-12-26T06:44:52.013Z,100891.28
2022-12-26T06:45:23.681Z,100887.19
2022-12-26T06:45:59.046Z,100889.41
2022-12-26T06:46:30.702Z,100903.66
2022-12-26T06:47:03.253Z,100888.00
2022-12-26T06:47:34.891Z,100891.69
2022-12-26T06:48:09.461Z,100892.69
2022-12-26T06:48:41.019Z,100894.16
2022-12-26T06:49:12.656Z,100895.97
2022-12-26T06:49:44.244Z,100900.63
2022-12-26T06:50:15.867Z,100899.00
2022-12-26T06:50:47.433Z,100898.94
2022-12-26T06:51:22.204Z,100904.44
2022-12-26T06:51:53.757Z,100901.19
2022-12-26T06:52:25.273Z,100899.75
2022-12-26T06:52:56.789Z,100903.22
2022-12-26T06:53:28.358Z,100893.72
2022-12-26T06:54:03.936Z,100906.25
2022-12-26T06:54:35.590Z,100903.41
2022-12-26T06:55:07.620Z,100898.13
2022-12-26T06:55:39.109Z,100907.91
2022-12-26T06:56:10.748Z,100911.75
2022-12-26T06:56:45.081Z,100902.41
2022-12-26T06:57:16.720Z,100908.25
2022-12-26T06:57:48.275Z,100906.66
2022-12-26T06:58:19.818Z,100920.94
2022-12-26T06:58:55.376Z,100906.94
2022-12-26T06:59:27.306Z,100913.28
2022-12-26T06:59:58.844Z,100918.50
2022-12-26T07:00:34.719Z,100916.44
2022-12-26T07:01:17.372Z,100921.72
2022-12-26T07:01:49.251Z,100914.16
2022-12-26T07:02:21.142Z,100909.09
2022-12-26T07:02:52.786Z,100910.56
2022-12-26T07:03:26.344Z,100923.59
2022-12-26T07:03:58.199Z,100923.16
2022-12-26T07:04:30.781Z,100914.41
2022-12-26T07:05:02.336Z,100922.97
2022-12-26T07:05:36.596Z,100927.06
2022-12-26T07:06:12.324Z,100924.72
2022-12-26T07:06:43.932Z,100921.44
2022-12-26T07:07:15.677Z,100921.44
2022-12-26T07:07:52.251Z,100927.97
2022-12-26T07:08:23.836Z,100929.59
2022-12-26T07:09:01.054Z,100930.81
2022-12-26T07:09:34.126Z,100926.94
2022-12-26T07:10:07.139Z,100925.50
2022-12-26T07:10:38.653Z,100923.88
2022-12-26T07:11:18.380Z,100918.56
2022-12-26T07:11:50.902Z,100931.44
2022-12-26T07:12:22.576Z,100927.13
2022-12-26T07:12:54.187Z,100932.81
2022-12-26T07:13:25.848Z,100934.47
2022-12-26T07:13:57.915Z,100936.94
2022-12-26T07:14:29.466Z,100933.69
2022-12-26T07:15:01.837Z,100933.69
2022-12-26T07:15:34.188Z,100942.66
2022-12-26T07:16:05.981Z,100931.66
2022-12-26T07:16:39.262Z,100938.22
2022-12-26T07:17:11.865Z,100927.59
2022-12-26T07:17:43.459Z,100932.09
2022-12-26T07:18:17.072Z,100935.78
2022-12-26T07:18:55.617Z,100936.66
2022-12-26T07:19:27.247Z,100939.06
2022-12-26T07:19:58.811Z,100941.09
2022-12-26T07:20:30.398Z,100943.94
2022-12-26T07:21:09.896Z,100937.81
2022-12-26T07:21:42.400Z,100929.88
2022-12-26T07:22:33.907Z,100945.97
2022-12-26T07:23:05.657Z,100938.84
2022-12-26T07:23:37.586Z,100936.19
2022-12-26T07:25:55.647Z,100946.78
2022-12-26T07:26:27.559Z,100941.72
2022-12-26T07:27:01.761Z,100945.19
2022-12-26T07:27:33.426Z,100932.94
2022-12-26T07:28:10.121Z,100936.03